createdAt,value
2019-01-20T00:00:59.009Z,-2.00
2019-01-20T00:03:31.025Z,-2.00
2019-01-20T00:06:01.525Z,-2.00
2019-01-20T00:08:32.003Z,-2.00
2019-01-20T00:11:04.130Z,-2.00
2019-01-20T00:13:34.733Z,-2.00
2019-01-20T00:16:05.451Z,-2.00
2019-01-20T00:18:37.173Z,-2.00
2019-01-20T00:21:07.739Z,-1.90
2019-01-20T00:23:39.342Z,-1.90
2019-01-20T00:26:09.814Z,-2.00
2019-01-20T00:28:40.330Z,-1.90
2019-01-20T00:31:10.792Z,-2.00
2019-01-20T00:33:41.287Z,-2.00
2019-01-20T00:36:11.840Z,-2.00
2019-01-20T00:38:42.341Z,-2.00
2019-01-20T00:41:12.817Z,-2.00
2019-01-20T00:43:43.324Z,-2.00
2019-01-20T00:46:13.856Z,-2.00
2019-01-20T00:48:44.371Z,-2.00
2019-01-20T00:51:15.000Z,-2.10
2019-01-20T00:53:45.502Z,-2.10
2019-01-20T00:56:16.002Z,-2.10
2019-01-20T00:58:46.467Z,-2.10
2019-01-20T01:01:17.035Z,-2.10
2019-01-20T01:03:47.573Z,-2.10
2019-01-20T01:06:18.581Z,-2.10
2019-01-20T01:08:49.055Z,-2.00
2019-01-20T01:11:19.630Z,-2.10
2019-01-20T01:13:50.104Z,-2.10
2019-01-20T01:16:20.593Z,-2.10
2019-01-20T01:18:52.631Z,-2.10
2019-01-20T01:21:23.167Z,-2.10
2019-01-20T01:23:53.676Z,-2.10
2019-01-20T01:26:25.378Z,-2.10
2019-01-20T01:28:55.906Z,-2.10
2019-01-20T01:31:26.379Z,-2.10
2019-01-20T01:33:56.901Z,-2.10
2019-01-20T01:36:27.367Z,-2.20
2019-01-20T01:38:57.866Z,-2.20
2019-01-20T01:41:29.573Z,-2.20
2019-01-20T01:44:00.188Z,-2.20
2019-01-20T01:46:30.630Z,-2.10
2019-01-20T01:49:01.123Z,-2.10
2019-01-20T01:51:33.262Z,-2.10
2019-01-20T01:54:03.740Z,-2.10
2019-01-20T01:56:34.322Z,-2.10
2019-01-20T01:59:05.163Z,-2.10
2019-01-20T02:01:35.665Z,-2.10
2019-01-20T02:04:06.122Z,-2.10
2019-01-20T02:06:36.618Z,-2.20
2019-01-20T02:09:08.854Z,-2.20
2019-01-20T02:11:46.584Z,-2.20
2019-01-20T02:14:11.519Z,-2.20
2019-01-20T02:16:43.561Z,-2.30
2019-01-20T02:19:14.072Z,-2.30
2019-01-20T02:21:44.544Z,-2.30
2019-01-20T02:24:15.068Z,-2.40
2019-01-20T02:26:46.569Z,-2.40
2019-01-20T02:29:17.064Z,-2.40
2019-01-20T02:31:47.568Z,-2.40
2019-01-20T02:34:19.941Z,-2.30
2019-01-20T02:36:50.411Z,-2.30
2019-01-20T02:39:20.903Z,-2.30
2019-01-20T02:41:55.169Z,-2.30
2019-01-20T02:44:23.939Z,-2.30
2019-01-20T02:46:54.416Z,-2.40
2019-01-20T02:49:24.926Z,-2.30
2019-01-20T02:51:55.386Z,-2.30
2019-01-20T02:54:25.879Z,-2.30
2019-01-20T02:56:56.377Z,-2.30
2019-01-20T02:59:26.856Z,-2.30
2019-01-20T03:01:59.126Z,-2.30
2019-01-20T03:04:30.331Z,-2.30
2019-01-20T03:07:00.900Z,-2.30
2019-01-20T03:09:31.374Z,-2.20
2019-01-20T03:12:04.839Z,-2.20
2019-01-20T03:14:35.307Z,-2.20
2019-01-20T03:17:05.959Z,-2.20
2019-01-20T03:19:36.500Z,-2.20
2019-01-20T03:22:07.187Z,-2.20
2019-01-20T03:24:37.686Z,-2.20
2019-01-20T03:27:08.369Z,-2.30
2019-01-20T03:29:38.872Z,-2.20
2019-01-20T03:32:09.409Z,-2.20
2019-01-20T03:34:39.999Z,-2.20
2019-01-20T03:37:10.600Z,-2.20
2019-01-20T03:39:41.098Z,-2.20
2019-01-20T03:42:12.346Z,-2.20
2019-01-20T03:44:43.026Z,-2.20
2019-01-20T03:47:13.526Z,-2.20
2019-01-20T03:49:43.986Z,-2.20
2019-01-20T03:52:14.476Z,-2.10
2019-01-20T03:54:45.025Z,-2.10
2019-01-20T03:57:18.322Z,-2.20
2019-01-20T03:59:48.899Z,-2.20
2019-01-20T04:02:21.013Z,-2.20
2019-01-20T04:04:53.143Z,-2.20
2019-01-20T04:07:23.689Z,-2.20
2019-01-20T04:09:54.294Z,-2.20
2019-01-20T04:12:24.819Z,-2.30
2019-01-20T04:14:56.416Z,-2.30
2019-01-20T04:17:27.300Z,-2.20
2019-01-20T04:19:57.801Z,-2.20
2019-01-20T04:22:28.350Z,-2.20
2019-01-20T04:24:58.948Z,-2.20
2019-01-20T04:27:29.424Z,-2.10
2019-01-20T04:29:59.994Z,-2.10
2019-01-20T04:32:30.471Z,-2.10
2019-01-20T04:35:00.983Z,-2.10
2019-01-20T04:37:31.520Z,-2.10
2019-01-20T04:40:02.052Z,-2.10
2019-01-20T04:42:35.011Z,-2.20
2019-01-20T04:45:10.497Z,-2.20
2019-01-20T04:47:42.423Z,-2.20
2019-01-20T04:50:22.389Z,-2.20
2019-01-20T04:52:53.956Z,-2.10
2019-01-20T04:55:24.556Z,-2.10
2019-01-20T04:57:55.095Z,-2.10
2019-01-20T05:00:27.505Z,-2.10
2019-01-20T05:02:58.052Z,-2.10
2019-01-20T05:05:28.544Z,-2.20
2019-01-20T05:07:59.003Z,-2.20
2019-01-20T05:10:30.454Z,-2.30
2019-01-20T05:13:01.673Z,-2.30
2019-01-20T05:15:32.179Z,-2.40
2019-01-20T05:18:02.661Z,-2.40
2019-01-20T05:20:34.610Z,-2.40
2019-01-20T05:23:05.155Z,-2.30
2019-01-20T05:25:35.672Z,-2.30
2019-01-20T05:28:06.116Z,-2.30
2019-01-20T05:30:37.662Z,-2.20
2019-01-20T05:33:08.129Z,-2.20
2019-01-20T05:35:38.631Z,-2.20
2019-01-20T05:38:09.097Z,-2.20
2019-01-20T05:40:39.683Z,-2.20
2019-01-20T05:43:10.212Z,-2.20
2019-01-20T05:45:40.721Z,-2.20
2019-01-20T05:48:12.318Z,-2.20
2019-01-20T05:50:42.824Z,-2.20
2019-01-20T05:53:14.830Z,-2.20
2019-01-20T05:55:45.337Z,-2.20
2019-01-20T05:58:15.839Z,-2.20
2019-01-20T06:00:46.339Z,-2.20
2019-01-20T06:03:17.372Z,-2.20
2019-01-20T06:05:47.871Z,-2.20
2019-01-20T06:08:18.412Z,-2.20
2019-01-20T06:10:48.915Z,-2.20
2019-01-20T06:13:19.381Z,-2.20
2019-01-20T06:15:49.882Z,-2.20
2019-01-20T06:18:21.578Z,-2.20
2019-01-20T06:20:52.050Z,-2.30
2019-01-20T06:23:22.540Z,-2.30
2019-01-20T06:25:53.033Z,-2.40
2019-01-20T06:28:23.526Z,-2.40
2019-01-20T06:30:54.033Z,-2.40
2019-01-20T06:33:26.038Z,-2.40
2019-01-20T06:35:56.530Z,-2.40
2019-01-20T06:38:27.015Z,-2.40
2019-01-20T06:40:57.533Z,-2.40
2019-01-20T06:43:27.999Z,-2.40
2019-01-20T06:45:58.538Z,-2.30
2019-01-20T06:48:29.036Z,-2.40
2019-01-20T06:50:59.501Z,-2.40
2019-01-20T06:53:30.000Z,-2.40
2019-01-20T06:56:00.507Z,-2.40
2019-01-20T06:58:30.972Z,-2.40
2019-01-20T07:01:01.507Z,-2.40
2019-01-20T07:03:31.970Z,-2.40
2019-01-20T07:06:02.468Z,-2.40
2019-01-20T07:08:33.049Z,-2.40
2019-01-20T07:11:03.513Z,-2.40
2019-01-20T07:13:34.017Z,-2.40
2019-01-20T07:16:06.075Z,-2.30
2019-01-20T07:18:36.538Z,-2.30
2019-01-20T07:21:07.026Z,-2.20
2019-01-20T07:23:37.499Z,-2.20
2019-01-20T07:26:07.989Z,-2.20
2019-01-20T07:28:38.455Z,-2.10
2019-01-20T07:31:10.601Z,-2.10
2019-01-20T07:33:41.077Z,-2.10
2019-01-20T07:36:12.608Z,-2.00
2019-01-20T07:38:44.721Z,-2.00
2019-01-20T07:41:15.214Z,-2.00
2019-01-20T07:43:45.718Z,-1.90
2019-01-20T07:46:16.191Z,-1.90
2019-01-20T07:48:46.675Z,-1.80
2019-01-20T07:51:17.219Z,-1.80
2019-01-20T07:53:47.683Z,-1.70
2019-01-20T07:56:18.220Z,-1.70
2019-01-20T07:58:48.686Z,-1.70
2019-01-20T08:01:19.202Z,-1.70
2019-01-20T08:03:49.676Z,-1.70
2019-01-20T08:06:20.170Z,-1.70
2019-01-20T08:08:50.658Z,-1.70
2019-01-20T08:11:21.190Z,-1.70
2019-01-20T08:13:51.689Z,-1.70
2019-01-20T08:16:22.269Z,-1.70
2019-01-20T08:18:52.807Z,-1.60
2019-01-20T08:21:23.306Z,-1.50
2019-01-20T08:23:53.774Z,-1.40
2019-01-20T08:26:24.283Z,-1.40
2019-01-20T08:28:54.756Z,-1.30
2019-01-20T08:31:25.254Z,-1.30
2019-01-20T08:33:55.754Z,-1.30
2019-01-20T08:36:26.415Z,-1.30
2019-01-20T08:38:57.027Z,-1.30
2019-01-20T08:41:27.563Z,-1.20
2019-01-20T08:43:58.070Z,-1.20
2019-01-20T08:46:35.734Z,-1.20
2019-01-20T08:49:06.311Z,-1.20
2019-01-20T08:51:36.852Z,-1.10
2019-01-20T08:54:07.351Z,-1.10
2019-01-20T08:56:38.918Z,-1.10
2019-01-20T08:59:09.456Z,-1.00
2019-01-20T09:01:39.904Z,-1.00
2019-01-20T09:04:10.437Z,-1.00
2019-01-20T09:06:40.917Z,-0.90
2019-01-20T09:09:11.488Z,-0.90
2019-01-20T09:11:42.054Z,-0.80
2019-01-20T09:14:12.549Z,-0.80
2019-01-20T09:16:43.017Z,-0.80
2019-01-20T09:19:13.522Z,-0.80
2019-01-20T09:21:44.159Z,-0.80
2019-01-20T09:24:14.661Z,-0.70
2019-01-20T09:26:45.120Z,-0.70
2019-01-20T09:29:15.621Z,-0.70
2019-01-20T09:31:46.103Z,-0.60
2019-01-20T09:34:16.603Z,-0.60
2019-01-20T09:36:47.062Z,-0.60
2019-01-20T09:39:17.574Z,-0.50
2019-01-20T09:41:48.069Z,-0.50
2019-01-20T09:44:18.538Z,-0.50
2019-01-20T09:46:50.729Z,-0.40
2019-01-20T09:49:21.194Z,-0.40
2019-01-20T09:51:52.174Z,-0.40
2019-01-20T09:54:22.639Z,-0.40
2019-01-20T09:56:53.236Z,-0.40
2019-01-20T09:59:23.699Z,-0.30
2019-01-20T10:01:54.951Z,-0.20
2019-01-20T10:04:25.408Z,-0.10
2019-01-20T10:06:55.906Z,-0.10
2019-01-20T10:09:27.692Z,0.00
2019-01-20T10:11:58.202Z,0.00
2019-01-20T10:14:28.658Z,0.10
2019-01-20T10:16:59.718Z,0.10
2019-01-20T10:19:30.377Z,0.20
2019-01-20T10:22:00.910Z,0.20
2019-01-20T10:24:31.662Z,0.30
2019-01-20T10:27:02.124Z,0.40
2019-01-20T10:29:32.632Z,0.50
2019-01-20T10:32:03.115Z,0.50
2019-01-20T10:34:34.573Z,0.50
2019-01-20T10:37:06.371Z,0.50
2019-01-20T10:39:36.962Z,0.50
2019-01-20T10:42:08.789Z,0.50
2019-01-20T10:44:39.276Z,0.50
2019-01-20T10:47:09.768Z,0.50
2019-01-20T10:49:41.856Z,0.50
2019-01-20T10:52:12.363Z,0.60
2019-01-20T10:54:42.817Z,0.60
2019-01-20T10:57:13.327Z,0.60
2019-01-20T10:59:43.862Z,0.70
2019-01-20T11:02:14.340Z,0.70
2019-01-20T11:04:46.334Z,0.70
2019-01-20T11:07:16.840Z,0.80
2019-01-20T11:09:47.312Z,0.90
2019-01-20T11:12:19.026Z,1.00
2019-01-20T11:14:49.482Z,1.10
2019-01-20T11:17:20.041Z,1.20
2019-01-20T11:19:50.497Z,1.40
2019-01-20T11:22:21.946Z,1.50
2019-01-20T11:24:52.401Z,1.70
2019-01-20T11:27:22.889Z,1.80
2019-01-20T11:29:53.346Z,1.90
2019-01-20T11:32:23.898Z,1.90
2019-01-20T11:34:54.391Z,1.90
2019-01-20T11:37:24.882Z,2.00
2019-01-20T11:39:55.437Z,1.90
2019-01-20T11:42:25.937Z,2.00
2019-01-20T11:44:56.416Z,1.90
2019-01-20T11:47:27.142Z,1.90
2019-01-20T11:49:57.633Z,1.80
2019-01-20T11:52:28.095Z,1.80
2019-01-20T11:54:58.595Z,1.80
2019-01-20T11:57:29.131Z,1.80
2019-01-20T11:59:59.647Z,1.70
2019-01-20T12:02:31.164Z,1.70
2019-01-20T12:05:03.355Z,1.80
2019-01-20T12:07:36.402Z,1.80
2019-01-20T12:10:10.301Z,1.80
2019-01-20T12:12:41.455Z,1.80
2019-01-20T12:15:16.638Z,1.80
2019-01-20T12:17:48.762Z,1.80
2019-01-20T12:20:19.439Z,1.80
2019-01-20T12:22:49.912Z,1.80
2019-01-20T12:25:22.306Z,1.90
2019-01-20T12:27:52.759Z,1.90
2019-01-20T12:30:33.227Z,1.90
2019-01-20T12:33:06.795Z,1.90
2019-01-20T12:35:37.357Z,1.90
2019-01-20T12:38:07.954Z,1.90
2019-01-20T12:40:50.806Z,1.90
2019-01-20T12:43:21.271Z,2.00
2019-01-20T12:45:51.763Z,2.00
2019-01-20T12:48:23.903Z,2.00
2019-01-20T12:50:54.360Z,2.00
2019-01-20T12:53:24.859Z,2.00
2019-01-20T12:55:55.308Z,2.00
2019-01-20T12:58:25.874Z,2.00
2019-01-20T13:00:56.341Z,1.90
2019-01-20T13:03:26.834Z,1.90
2019-01-20T13:05:57.296Z,1.90
2019-01-20T13:08:27.791Z,1.80
2019-01-20T13:10:58.253Z,1.80
2019-01-20T13:13:28.827Z,1.70
2019-01-20T13:15:59.314Z,1.80
2019-01-20T13:18:31.401Z,1.80
2019-01-20T13:21:01.880Z,1.80
2019-01-20T13:23:32.343Z,1.80
2019-01-20T13:26:02.897Z,1.80
2019-01-20T13:28:33.398Z,1.80
2019-01-20T13:31:03.854Z,1.80
2019-01-20T13:33:34.358Z,1.80
2019-01-20T13:36:07.252Z,1.80
2019-01-20T13:38:38.112Z,1.80
2019-01-20T13:41:10.584Z,1.80
2019-01-20T13:43:41.074Z,1.80
2019-01-20T13:46:11.644Z,1.70
2019-01-20T13:48:42.104Z,1.70
2019-01-20T13:51:12.770Z,1.60
2019-01-20T13:53:43.230Z,1.60
2019-01-20T13:56:13.799Z,1.50
2019-01-20T13:58:45.069Z,1.40
2019-01-20T14:01:15.522Z,1.30
2019-01-20T14:03:46.098Z,1.20
2019-01-20T14:06:16.604Z,1.10
2019-01-20T14:08:47.078Z,1.10
2019-01-20T14:11:20.213Z,1.10
2019-01-20T14:13:50.885Z,1.10
2019-01-20T14:16:21.420Z,1.10
2019-01-20T14:18:51.895Z,1.10
2019-01-20T14:21:22.388Z,1.10
2019-01-20T14:23:52.846Z,1.10
2019-01-20T14:26:23.514Z,1.10
2019-01-20T14:28:54.044Z,1.00
2019-01-20T14:31:24.625Z,1.10
2019-01-20T14:33:55.101Z,1.00
2019-01-20T14:36:26.160Z,1.00
2019-01-20T14:38:56.620Z,1.00
2019-01-20T14:41:27.115Z,1.00
2019-01-20T14:43:57.605Z,1.00
2019-01-20T14:46:28.063Z,1.00
2019-01-20T14:48:58.552Z,1.00
2019-01-20T14:51:32.793Z,1.00
2019-01-20T14:54:03.291Z,1.00
2019-01-20T14:56:33.745Z,0.90
2019-01-20T14:59:04.387Z,0.80
2019-01-20T15:01:34.949Z,0.80
2019-01-20T15:04:05.784Z,0.70
2019-01-20T15:06:36.344Z,0.70
2019-01-20T15:09:08.408Z,0.60
2019-01-20T15:11:38.921Z,0.60
2019-01-20T15:14:09.431Z,0.50
2019-01-20T15:16:39.894Z,0.50
2019-01-20T15:19:10.411Z,0.60
2019-01-20T15:21:41.366Z,0.50
2019-01-20T15:24:11.831Z,0.50
2019-01-20T15:26:42.320Z,0.40
2019-01-20T15:29:12.874Z,0.40
2019-01-20T15:31:43.334Z,0.40
2019-01-20T15:34:13.910Z,0.40
2019-01-20T15:36:44.389Z,0.40
2019-01-20T15:39:14.885Z,0.40
2019-01-20T15:41:45.421Z,0.30
2019-01-20T15:44:15.912Z,0.30
2019-01-20T15:46:46.395Z,0.20
2019-01-20T15:49:16.894Z,0.20
2019-01-20T15:51:47.400Z,0.20
2019-01-20T15:54:17.877Z,0.10
2019-01-20T15:56:48.364Z,0.10
2019-01-20T15:59:18.833Z,0.10
2019-01-20T16:01:49.319Z,0.00
2019-01-20T16:04:23.990Z,0.00
2019-01-20T16:06:51.965Z,0.00
2019-01-20T16:09:22.441Z,0.00
2019-01-20T16:11:52.946Z,-0.10
2019-01-20T16:14:23.411Z,-0.10
2019-01-20T16:16:53.915Z,-0.20
2019-01-20T16:19:24.386Z,-0.20
2019-01-20T16:21:54.907Z,-0.20
2019-01-20T16:24:29.352Z,-0.30
2019-01-20T16:27:01.117Z,-0.30
2019-01-20T16:29:31.822Z,-0.40
2019-01-20T16:32:02.288Z,-0.50
2019-01-20T16:34:33.467Z,-0.50
2019-01-20T16:37:04.001Z,-0.50
2019-01-20T16:39:34.500Z,-0.60
2019-01-20T16:42:05.199Z,-0.70
2019-01-20T16:44:35.704Z,-0.70
2019-01-20T16:47:06.250Z,-0.70
2019-01-20T16:49:36.754Z,-0.80
2019-01-20T16:52:08.879Z,-0.80
2019-01-20T16:54:39.357Z,-0.80
2019-01-20T16:57:09.927Z,-0.90
2019-01-20T16:59:40.402Z,-0.90
2019-01-20T17:02:10.905Z,-0.90
2019-01-20T17:04:41.431Z,-1.00
2019-01-20T17:07:13.585Z,-1.10
2019-01-20T17:09:44.054Z,-1.10
2019-01-20T17:12:14.566Z,-1.20
2019-01-20T17:14:45.034Z,-1.20
2019-01-20T17:17:15.545Z,-1.20
2019-01-20T17:19:46.063Z,-1.20
2019-01-20T17:22:16.543Z,-1.30
2019-01-20T17:24:47.041Z,-1.30
2019-01-20T17:27:17.543Z,-1.30
2019-01-20T17:29:48.049Z,-1.30
2019-01-20T17:32:19.721Z,-1.40
2019-01-20T17:34:50.194Z,-1.40
2019-01-20T17:37:20.706Z,-1.40
2019-01-20T17:40:04.958Z,-1.40
2019-01-20T17:42:35.461Z,-1.40
2019-01-20T17:45:10.731Z,-1.50
2019-01-20T17:47:41.189Z,-1.50
2019-01-20T17:50:27.792Z,-1.60
2019-01-20T17:52:58.333Z,-1.50
2019-01-20T17:55:28.844Z,-1.60
2019-01-20T17:57:59.346Z,-1.60
2019-01-20T18:00:38.713Z,-1.70
2019-01-20T18:03:10.220Z,-1.70
2019-01-20T18:05:40.976Z,-1.80
2019-01-20T18:08:11.579Z,-1.80
2019-01-20T18:10:43.177Z,-1.80
2019-01-20T18:13:13.881Z,-1.80
2019-01-20T18:15:44.384Z,-1.80
2019-01-20T18:18:14.938Z,-1.80
2019-01-20T18:20:45.461Z,-1.90
2019-01-20T18:23:16.032Z,-2.00
2019-01-20T18:25:46.541Z,-2.10
2019-01-20T18:28:17.027Z,-2.10
2019-01-20T18:30:47.549Z,-2.10
2019-01-20T18:33:18.062Z,-2.20
2019-01-20T18:35:48.750Z,-2.20
2019-01-20T18:38:19.241Z,-2.20
2019-01-20T18:40:49.797Z,-2.20
2019-01-20T18:43:20.304Z,-2.20
2019-01-20T18:45:50.783Z,-2.20
2019-01-20T18:48:21.299Z,-2.20
2019-01-20T18:50:51.919Z,-2.20
2019-01-20T18:53:22.416Z,-2.20
2019-01-20T18:55:52.917Z,-2.20
2019-01-20T18:58:23.412Z,-2.30
2019-01-20T19:00:54.035Z,-2.30
2019-01-20T19:03:24.554Z,-2.30
2019-01-20T19:05:55.028Z,-2.30
2019-01-20T19:08:25.545Z,-2.30
2019-01-20T19:10:56.054Z,-2.40
2019-01-20T19:13:26.556Z,-2.40
2019-01-20T19:15:57.076Z,-2.40
2019-01-20T19:18:28.423Z,-2.50
2019-01-20T19:20:58.949Z,-2.50
2019-01-20T19:23:29.486Z,-2.50
2019-01-20T19:25:59.992Z,-2.60
2019-01-20T19:28:30.460Z,-2.60
2019-01-20T19:31:00.969Z,-2.70
2019-01-20T19:33:32.822Z,-2.70
2019-01-20T19:36:03.360Z,-2.80
2019-01-20T19:38:33.846Z,-2.80
2019-01-20T19:41:04.357Z,-2.90
2019-01-20T19:43:34.849Z,-2.90
2019-01-20T19:46:05.425Z,-3.00
2019-01-20T19:48:35.906Z,-3.00
2019-01-20T19:51:06.562Z,-3.10
2019-01-20T19:53:37.040Z,-3.10
2019-01-20T19:56:07.541Z,-3.20
2019-01-20T19:58:38.019Z,-3.20
2019-01-20T20:01:08.580Z,-3.20
2019-01-20T20:03:39.085Z,-3.20
2019-01-20T20:06:09.655Z,-3.30
2019-01-20T20:08:40.163Z,-3.30
2019-01-20T20:11:10.674Z,-3.40
2019-01-20T20:13:41.157Z,-3.40
2019-01-20T20:16:11.680Z,-3.40
2019-01-20T20:18:42.158Z,-3.40
2019-01-20T20:21:12.667Z,-3.40
2019-01-20T20:23:43.177Z,-3.50
2019-01-20T20:26:13.661Z,-3.50
2019-01-20T20:28:44.178Z,-3.50
2019-01-20T20:31:14.676Z,-3.50
2019-01-20T20:33:45.212Z,-3.60
2019-01-20T20:36:15.683Z,-3.60
2019-01-20T20:38:46.199Z,-3.60
2019-01-20T20:41:16.751Z,-3.70
2019-01-20T20:43:47.254Z,-3.70
2019-01-20T20:46:17.775Z,-3.70
2019-01-20T20:48:48.263Z,-3.70
2019-01-20T20:51:18.780Z,-3.80
2019-01-20T20:53:49.695Z,-3.80
2019-01-20T20:56:20.244Z,-3.90
2019-01-20T20:58:50.727Z,-3.90
2019-01-20T21:01:21.357Z,-4.00
2019-01-20T21:03:51.912Z,-4.00
2019-01-20T21:06:22.442Z,-4.10
2019-01-20T21:08:52.921Z,-4.10
2019-01-20T21:11:24.907Z,-4.20
2019-01-20T21:13:55.385Z,-4.30
2019-01-20T21:16:25.904Z,-4.30
2019-01-20T21:18:56.428Z,-4.40
2019-01-20T21:21:26.944Z,-4.40
2019-01-20T21:23:57.422Z,-4.40
2019-01-20T21:26:28.003Z,-4.50
2019-01-20T21:28:58.515Z,-4.60
2019-01-20T21:31:29.043Z,-4.70
2019-01-20T21:33:59.524Z,-4.70
2019-01-20T21:36:30.056Z,-4.70
2019-01-20T21:39:02.078Z,-4.70
2019-01-20T21:41:32.585Z,-4.70
2019-01-20T21:44:03.137Z,-4.70
2019-01-20T21:46:33.665Z,-4.70
2019-01-20T21:49:04.207Z,-4.70
2019-01-20T21:51:34.713Z,-4.80
2019-01-20T21:54:05.399Z,-4.70
2019-01-20T21:56:35.938Z,-4.70
2019-01-20T21:59:08.565Z,-4.80
2019-01-20T22:01:39.037Z,-4.80
2019-01-20T22:04:09.577Z,-4.80
2019-01-20T22:06:40.089Z,-4.80
2019-01-20T22:09:10.649Z,-4.90
2019-01-20T22:11:41.133Z,-4.90
2019-01-20T22:14:11.636Z,-5.00
2019-01-20T22:16:42.150Z,-5.10
2019-01-20T22:19:12.629Z,-5.10
2019-01-20T22:21:43.131Z,-5.20
2019-01-20T22:24:13.650Z,-5.20
2019-01-20T22:26:44.168Z,-5.20
2019-01-20T22:29:14.658Z,-5.30
2019-01-20T22:31:45.163Z,-5.30
2019-01-20T22:34:15.639Z,-5.40
2019-01-20T22:36:46.280Z,-5.40
2019-01-20T22:39:16.797Z,-5.50
2019-01-20T22:41:47.328Z,-5.60
2019-01-20T22:44:17.828Z,-5.60
2019-01-20T22:46:48.361Z,-5.70
2019-01-20T22:49:18.849Z,-5.70
2019-01-20T22:51:49.425Z,-5.70
2019-01-20T22:54:19.939Z,-5.60
2019-01-20T22:56:50.426Z,-5.80
2019-01-20T22:59:20.913Z,-5.80
2019-01-20T23:01:51.476Z,-5.70
2019-01-20T23:04:21.976Z,-5.90
2019-01-20T23:06:52.456Z,-5.90
2019-01-20T23:09:23.028Z,-5.90
2019-01-20T23:11:53.508Z,-5.90
2019-01-20T23:14:24.015Z,-6.00
2019-01-20T23:16:54.519Z,-5.80
2019-01-20T23:19:25.005Z,-5.70
2019-01-20T23:21:55.562Z,-6.20
2019-01-20T23:24:26.080Z,-6.10
2019-01-20T23:26:56.605Z,-6.10
2019-01-20T23:29:27.116Z,-6.20
2019-01-20T23:31:57.617Z,-6.10
2019-01-20T23:34:28.127Z,-6.30
2019-01-20T23:36:58.616Z,-5.90
2019-01-20T23:39:29.147Z,-6.40
2019-01-20T23:41:59.626Z,-6.40
2019-01-20T23:44:30.133Z,-6.50
2019-01-20T23:47:00.607Z,-6.50
2019-01-20T23:49:31.120Z,-6.60
2019-01-20T23:52:01.677Z,-6.60
2019-01-20T23:54:33.731Z,-6.00
2019-01-20T23:57:04.272Z,-6.60
2019-01-20T23:59:34.816Z,-6.70
